Time;durP1;ratioP1;P1;durP2;ratioP2;P2;SDS_P1;SDS_P2;PMS_P1;PMS_P2;Temp;Humidity;BMP_temperature;BMP_pressure;BME280_temperature;BME280_humidity;BME280_pressure;Samples;Min_cycle;Max_cycle;Signal;HPM_P1;HPM_P2
2023/06/24 00:02:23;;;;;;;11.23;6.65;;;20.50;75.20;;;19.87;60.01;101428.22;4997088;28;20046;-80
2023/06/24 00:04:51;;;;;;;8.63;6.53;;;20.40;75.20;;;19.85;60.35;101419.50;4995344;28;20041;-80
2023/06/24 00:07:22;;;;;;;10.98;6.72;;;20.30;75.20;;;19.84;60.14;101414.34;4978858;28;20054;-80
2023/06/24 00:09:49;;;;;;;10.20;7.43;;;20.40;75.30;;;19.82;60.51;101417.31;4974207;28;20066;-80
2023/06/24 00:12:18;;;;;;;12.50;6.53;;;20.40;75.30;;;19.79;60.24;101420.50;5003686;28;20033;-80
2023/06/24 00:14:46;;;;;;;11.10;7.18;;;20.30;75.40;;;19.78;60.34;101422.38;4989682;28;20403;-80
2023/06/24 00:17:16;;;;;;;10.60;6.45;;;20.30;75.40;;;19.77;60.57;101417.25;4978620;28;20050;-80
2023/06/24 00:19:44;;;;;;;8.98;6.28;;;20.30;75.40;;;19.76;60.29;101421.00;5000192;28;20072;-80
2023/06/24 00:22:12;;;;;;;10.23;6.68;;;20.30;75.40;;;19.74;60.25;101415.03;5000539;28;20042;-80
2023/06/24 00:24:39;;;;;;;11.65;6.93;;;20.30;75.40;;;19.73;60.52;101416.09;4988025;28;20129;-80
2023/06/24 00:27:07;;;;;;;9.55;6.80;;;20.30;75.40;;;19.71;60.39;101416.31;4972132;28;20045;-80
2023/06/24 00:29:34;;;;;;;10.25;6.78;;;20.30;75.70;;;19.70;60.38;101416.56;4997472;28;20050;-80
2023/06/24 00:32:02;;;;;;;9.05;6.38;;;20.30;75.60;;;19.69;60.62;101409.53;4995926;28;20045;-80
2023/06/24 00:34:30;;;;;;;10.05;6.75;;;20.30;75.70;;;19.68;60.54;101407.91;5015290;28;20041;-79
2023/06/24 00:36:58;;;;;;;9.05;6.57;;;20.20;75.70;;;19.67;60.27;101406.25;5000290;28;20046;-80
2023/06/24 00:39:28;;;;;;;10.55;7.07;;;20.20;75.70;;;19.64;60.37;101402.16;4986464;28;20465;-80
2023/06/24 00:41:55;;;;;;;8.45;6.22;;;20.20;75.70;;;19.62;60.52;101406.16;4978634;28;20082;-79
2023/06/24 00:44:22;;;;;;;9.35;6.55;;;20.20;75.90;;;19.60;60.67;101405.59;4984007;28;20058;-80
2023/06/24 00:46:50;;;;;;;8.60;6.40;;;20.20;75.90;;;19.58;60.56;101407.72;4985559;28;20046;-80
2023/06/24 00:49:17;;;;;;;10.57;7.18;;;20.20;75.90;;;19.58;60.74;101405.00;4986429;28;20601;-80
2023/06/24 00:51:50;;;;;;;9.38;6.38;;;20.10;75.90;;;19.55;60.50;101404.44;4993431;28;20096;-80
2023/06/24 00:54:19;;;;;;;9.77;6.40;;;20.10;75.90;;;19.54;60.51;101410.09;4993412;28;20055;-79
2023/06/24 00:56:47;;;;;;;10.50;6.40;;;20.10;75.90;;;19.52;60.75;101410.34;4992496;28;20097;-80
2023/06/24 00:59:17;;;;;;;10.13;6.18;;;20.10;76.00;;;19.51;60.83;101405.97;4991051;28;20149;-80
2023/06/24 01:01:45;;;;;;;8.18;6.38;;;20.10;76.00;;;19.49;60.40;101408.13;4981868;28;20050;-80
2023/06/24 01:04:13;;;;;;;13.32;7.15;;;20.00;75.90;;;19.47;60.84;101415.69;4989042;28;20117;-79
2023/06/24 01:06:43;;;;;;;8.98;6.65;;;20.00;76.00;;;19.46;60.64;101405.91;4997512;28;20049;-80
2023/06/24 01:09:10;;;;;;;9.00;6.13;;;20.00;76.00;;;19.46;60.93;101411.31;5000099;28;20046;-80
2023/06/24 01:11:41;;;;;;;9.90;6.85;;;20.00;76.00;;;19.43;60.70;101408.31;5000686;28;20045;-79
2023/06/24 01:14:08;;;;;;;14.80;7.45;;;20.00;76.10;;;19.42;60.54;101412.91;4996490;28;20141;-80
2023/06/24 01:16:53;;;;;;;13.07;6.75;;;20.00;76.10;;;19.42;60.51;101407.50;4995439;28;20042;-80
2023/06/24 01:19:46;;;;;;;9.15;7.03;;;19.90;76.10;;;19.40;60.77;101408.78;4992125;28;20573;-79
2023/06/24 01:22:36;;;;;;;11.45;6.85;;;19.90;76.20;;;19.38;60.74;101392.81;4992559;28;20049;-80
2023/06/24 01:25:26;;;;;;;9.30;6.13;;;19.90;76.30;;;19.36;60.77;101394.94;4981256;28;20132;-80
2023/06/24 01:28:31;;;;;;;10.45;6.93;;;19.90;76.20;;;19.34;60.66;101390.84;4981562;28;20297;-80
2023/06/24 01:31:34;;;;;;;9.88;6.68;;;19.90;76.40;;;19.30;61.16;101396.75;4992630;28;20097;-80
2023/06/24 01:34:19;;;;;;;10.38;6.60;;;19.80;76.40;;;19.28;60.97;101388.06;4996646;28;20068;-80
2023/06/24 01:37:01;;;;;;;11.68;6.45;;;19.80;76.40;;;19.26;61.13;101390.19;4993477;28;20042;-79
2023/06/24 01:39:32;;;;;;;8.50;6.70;;;19.80;76.50;;;19.27;61.10;101388.28;4995077;28;20050;-80
2023/06/24 01:42:08;;;;;;;10.32;6.75;;;19.80;76.50;;;19.25;61.22;101387.72;4990585;28;20046;-80
2023/06/24 01:44:38;;;;;;;12.45;6.85;;;19.80;76.60;;;19.24;61.27;101392.31;4973861;28;20121;-80
2023/06/24 01:47:09;;;;;;;11.38;6.72;;;19.80;76.60;;;19.23;60.97;101387.16;4971785;28;20060;-79
2023/06/24 01:49:43;;;;;;;10.52;6.68;;;19.80;76.60;;;19.22;60.88;101377.38;4969996;28;20046;-79
2023/06/24 01:52:11;;;;;;;8.10;6.50;;;19.80;76.70;;;19.20;61.32;101372.25;4985058;28;20078;-80
2023/06/24 01:54:42;;;;;;;11.07;6.78;;;19.70;76.60;;;19.19;61.18;101378.72;4988436;28;20102;-80
2023/06/24 01:57:12;;;;;;;9.43;6.18;;;19.70;76.70;;;19.18;60.96;101373.53;4974076;28;20111;-79
2023/06/24 01:59:43;;;;;;;10.93;6.45;;;19.70;76.70;;;19.17;61.13;101371.91;4984774;28;20145;-80
2023/06/24 02:02:13;;;;;;;8.55;6.25;;;19.70;76.80;;;19.16;61.36;101372.97;4982345;28;20101;-80
2023/06/24 02:04:41;;;;;;;9.63;6.10;;;19.70;76.80;;;19.16;61.23;101372.97;4993059;28;20050;-80
2023/06/24 02:07:11;;;;;;;12.25;6.70;;;19.70;76.80;;;19.13;61.29;101374.31;4989544;28;20050;-80
2023/06/24 02:09:43;;;;;;;10.13;6.97;;;19.70;76.80;;;19.14;61.13;101372.41;5002357;28;20056;-79
2023/06/24 02:12:11;;;;;;;9.90;6.82;;;19.70;76.90;;;19.13;61.52;101378.88;4993515;28;20074;-79
2023/06/24 02:14:39;;;;;;;15.43;7.55;;;19.70;77.00;;;19.12;61.55;101385.34;4972422;28;20556;-80
2023/06/24 02:17:10;;;;;;;9.55;6.53;;;19.70;77.00;;;19.11;61.21;101379.13;4985148;28;20096;-79
2023/06/24 02:19:39;;;;;;;;;;;19.60;76.80;;;19.11;61.20;101386.41;4995520;28;20498;-79
2023/06/24 02:22:09;;;;;;;12.43;6.60;;;19.60;76.80;;;19.09;61.44;101385.84;5002613;28;19953;-80
2023/06/24 02:24:38;;;;;;;9.30;6.68;;;19.60;77.00;;;19.07;61.55;101383.38;4998946;28;20116;-79
2023/06/24 02:27:09;;;;;;;10.13;6.30;;;19.60;77.00;;;19.05;61.56;101374.69;4988682;28;20050;-80
2023/06/24 02:29:38;;;;;;;9.98;6.70;;;19.60;77.00;;;19.04;61.65;101383.88;4990250;28;20521;-80
2023/06/24 02:32:06;;;;;;;13.25;6.93;;;19.60;77.10;;;19.01;61.54;101377.06;5001954;28;20601;-80
2023/06/24 02:34:34;;;;;;;8.88;6.57;;;19.60;77.00;;;19.01;61.44;101374.38;4980297;28;20141;-80
2023/06/24 02:37:02;;;;;;;10.20;6.57;;;19.50;77.20;;;18.98;61.35;101374.88;4983304;28;20051;-80
2023/06/24 02:39:30;;;;;;;9.85;6.50;;;19.50;77.20;;;18.97;61.31;101375.91;4993323;28;20056;-80
2023/06/24 02:41:57;;;;;;;10.18;6.45;;;19.50;77.10;;;18.96;61.58;101366.16;4992925;28;20570;-79
2023/06/24 02:44:24;;;;;;;11.32;6.88;;;19.50;77.20;;;18.95;61.27;101369.13;4992053;28;20045;-79
2023/06/24 02:46:54;;;;;;;10.40;6.93;;;19.50;77.20;;;18.94;61.42;101376.41;4981736;28;20078;-80
2023/06/24 02:49:22;;;;;;;10.15;6.57;;;19.50;77.20;;;18.93;61.56;101369.34;4989802;28;20066;-79
2023/06/24 02:51:49;;;;;;;10.98;7.18;;;19.50;77.20;;;18.92;61.53;101375.00;4996276;28;20706;-79
2023/06/24 02:54:18;;;;;;;9.35;6.97;;;19.50;77.30;;;18.90;61.81;101367.16;4979195;28;20553;-79
2023/06/24 02:57:10;;;;;;;14.73;6.93;;;19.50;77.30;;;18.88;61.31;101366.56;4983010;28;20050;-80
2023/06/24 03:00:05;;;;;;;10.13;6.40;;;19.50;77.30;;;18.88;61.85;101361.16;4973225;28;20559;-80
2023/06/24 03:02:47;;;;;;;9.93;6.93;;;19.40;77.30;;;18.86;61.71;101368.69;4978348;28;20133;-79
2023/06/24 03:05:15;;;;;;;9.90;6.72;;;19.40;77.30;;;18.86;61.83;101365.19;4991684;28;20078;-79
2023/06/24 03:07:43;;;;;;;9.35;6.47;;;19.40;77.40;;;18.86;61.61;101374.09;4995322;28;20136;-79
2023/06/24 03:10:14;;;;;;;7.70;5.82;;;19.40;77.50;;;18.86;61.69;101378.69;4994072;28;20054;-79
2023/06/24 03:12:41;;;;;;;9.20;6.53;;;19.40;77.40;;;18.84;61.84;101378.94;4972828;28;20114;-79
2023/06/24 03:15:09;;;;;;;10.52;6.75;;;19.40;77.40;;;18.84;61.70;101380.81;4975416;28;20096;-79
2023/06/24 03:17:37;;;;;;;11.52;7.15;;;19.40;77.50;;;18.83;62.06;101377.28;4989146;28;20499;-80
2023/06/24 03:20:07;;;;;;;9.95;7.15;;;19.40;77.60;;;18.82;62.27;101383.75;5006743;22;20045;-79
2023/06/24 03:22:35;;;;;;;9.63;6.68;;;19.40;77.70;;;18.83;62.35;101380.00;5025614;28;20577;-79
2023/06/24 03:25:04;;;;;;;11.32;6.50;;;19.40;77.80;;;18.83;62.06;101377.28;5020536;28;20054;-80
2023/06/24 03:27:34;;;;;;;10.88;6.72;;;19.40;77.90;;;18.82;62.29;101378.34;5023652;28;20509;-80
2023/06/24 03:30:03;;;;;;;9.77;6.68;;;19.40;78.00;;;18.83;62.50;101371.88;5037012;28;20041;-80
2023/06/24 03:32:34;;;;;;;9.88;7.20;;;19.40;78.20;;;18.84;62.42;101375.41;5025800;28;20041;-79
2023/06/24 03:35:02;;;;;;;11.05;7.00;;;19.40;78.30;;;18.86;62.96;101367.88;4991804;28;20051;-80
2023/06/24 03:37:29;;;;;;;10.23;7.05;;;19.40;78.60;;;18.85;63.33;101367.06;5003409;28;20077;-80
2023/06/24 03:39:57;;;;;;;10.30;7.05;;;19.40;78.70;;;18.86;63.23;101379.50;5008613;28;20046;-80
2023/06/24 03:42:25;;;;;;;10.68;7.07;;;19.40;78.70;;;18.86;63.19;101374.09;5036785;28;20061;-81
2023/06/24 03:44:54;;;;;;;14.27;6.75;;;19.50;79.00;;;18.87;63.19;101380.34;5014401;28;20053;-81
2023/06/24 03:47:21;;;;;;;9.90;6.75;;;19.50;78.90;;;18.87;63.49;101383.84;5019958;28;20395;-81
2023/06/24 03:49:48;;;;;;;10.80;6.95;;;19.40;78.80;;;18.88;63.50;101382.78;5003283;28;20100;-80
2023/06/24 03:52:15;;;;;;;13.82;7.30;;;19.50;79.00;;;18.89;63.38;101378.22;5030316;28;20728;-80
2023/06/24 03:54:44;;;;;;;10.95;7.00;;;19.50;78.90;;;18.90;63.46;101388.78;5009921;28;20052;-81
2023/06/24 03:57:12;;;;;;;11.25;7.32;;;19.50;79.00;;;18.91;63.32;101393.13;5013445;28;20061;-85
2023/06/24 03:59:39;;;;;;;8.93;6.55;;;19.50;78.90;;;18.91;63.44;101387.72;5009247;28;20046;-84
2023/06/24 04:02:08;;;;;;;12.60;6.93;;;19.50;79.20;;;18.93;63.59;101395.56;4997434;28;20077;-84
2023/06/24 04:04:37;;;;;;;12.57;7.15;;;19.50;79.20;;;18.94;63.71;101391.81;5012957;28;20064;-85
2023/06/24 04:07:05;;;;;;;11.90;6.95;;;19.50;79.40;;;18.94;63.79;101398.06;5034001;28;20457;-85
2023/06/24 04:09:35;;;;;;;11.45;7.50;;;19.50;79.50;;;18.95;64.15;101393.47;5011350;28;20437;-86
2023/06/24 04:12:02;;;;;;;15.27;7.03;;;19.60;79.50;;;18.98;64.16;101403.75;5003225;28;20049;-87
2023/06/24 04:14:34;;;;;;;10.30;7.35;;;19.60;79.50;;;19.01;64.10;101403.28;5012962;28;20050;-86
2023/06/24 04:17:02;;;;;;;9.65;7.25;;;19.60;79.60;;;19.00;64.08;101402.47;5020011;28;20046;-86
2023/06/24 04:19:32;;;;;;;12.57;7.20;;;19.60;79.60;;;19.01;64.17;101398.69;5009025;28;20077;-86
2023/06/24 04:21:59;;;;;;;12.93;6.75;;;19.60;79.70;;;19.02;64.40;101394.91;5002551;28;20045;-86
2023/06/24 04:24:26;;;;;;;11.60;7.80;;;19.60;79.60;;;19.03;63.82;101391.19;5007134;28;20506;-86
2023/06/24 04:26:54;;;;;;;10.63;6.97;;;19.60;79.50;;;19.04;63.94;101390.09;5010694;28;20077;-85
2023/06/24 04:29:22;;;;;;;10.82;6.90;;;19.70;79.80;;;19.07;64.09;101396.06;4996036;28;20073;-86
2023/06/24 04:31:49;;;;;;;11.55;7.15;;;19.70;79.80;;;19.07;64.26;101386.09;5011918;28;20092;-85
2023/06/24 04:34:17;;;;;;;12.10;6.90;;;19.70;79.80;;;19.07;64.31;101385.25;5025632;28;20140;-85
2023/06/24 04:36:46;;;;;;;10.77;6.57;;;19.70;80.00;;;19.09;64.57;101389.38;5011598;28;20551;-84
2023/06/24 04:39:13;;;;;;;9.25;6.93;;;19.70;80.20;;;19.10;64.84;101401.00;5002963;28;20046;-83
2023/06/24 04:41:41;;;;;;;10.77;6.85;;;19.70;80.40;;;19.11;65.14;101398.06;4999623;28;20054;-83
2023/06/24 04:44:08;;;;;;;12.90;7.50;;;19.70;80.40;;;19.12;65.09;101399.69;5004275;28;20119;-83
2023/06/24 04:46:37;;;;;;;11.38;7.00;;;19.70;80.50;;;19.14;65.12;101404.88;5018959;28;20049;-83
2023/06/24 04:49:04;;;;;;;10.05;7.35;;;19.80;80.50;;;19.14;65.31;101397.56;5006183;28;20469;-84
2023/06/24 04:51:31;;;;;;;13.75;7.78;;;19.80;80.60;;;19.16;65.35;101400.03;4999822;28;20059;-83
2023/06/24 04:54:00;;;;;;;10.25;7.45;;;19.80;80.70;;;19.18;65.76;101408.69;4999101;28;20108;-83
2023/06/24 04:56:28;;;;;;;10.63;7.60;;;19.80;81.00;;;19.20;65.71;101403.88;5021027;28;20050;-83
2023/06/24 04:58:55;;;;;;;14.95;8.23;;;19.80;81.00;;;19.21;65.47;101403.63;5000317;28;20045;-84
2023/06/24 05:01:23;;;;;;;12.35;7.13;;;19.90;81.20;;;19.27;65.92;101405.34;5012789;28;20358;-82
2023/06/24 05:03:50;;;;;;;14.32;7.55;;;19.90;81.30;;;19.33;66.34;101400.03;5007020;28;20065;-81
2023/06/24 05:06:18;;;;;;;14.68;7.13;;;20.00;81.90;;;19.41;66.32;101392.31;5008111;28;20406;-81
2023/06/24 05:08:45;;;;;;;11.02;6.60;;;20.00;82.20;;;19.49;66.55;101394.59;4991504;28;20478;-83
2023/06/24 05:11:13;;;;;;;13.38;7.20;;;20.10;82.60;;;19.56;65.25;101399.81;4994862;28;20096;-84
2023/06/24 05:13:41;;;;;;;11.63;6.85;;;20.20;81.20;;;19.62;65.41;101401.59;5006746;28;20046;-83
2023/06/24 05:16:09;;;;;;;10.93;7.22;;;20.20;81.40;;;19.68;65.37;101402.47;5010166;28;20162;-82
2023/06/24 05:18:36;;;;;;;12.35;7.53;;;20.30;81.20;;;19.74;65.11;101401.47;5007176;28;20049;-75
2023/06/24 05:21:03;;;;;;;13.15;7.82;;;20.40;80.80;;;19.82;65.02;101392.13;5007252;28;20124;-87
2023/06/24 05:23:30;;;;;;;12.70;7.63;;;20.50;80.70;;;19.92;64.37;101393.06;5008187;28;20558;-87
2023/06/24 05:25:58;;;;;;;14.05;7.63;;;20.60;80.10;;;20.02;64.13;101389.69;5003892;28;20068;-87
2023/06/24 05:28:26;;;;;;;10.13;7.82;;;20.70;79.80;;;20.14;64.21;101389.53;5004104;28;20591;-86
2023/06/24 05:30:53;;;;;;;12.10;7.65;;;20.80;79.60;;;20.24;64.25;101392.38;4999853;28;20141;-87
2023/06/24 05:33:21;;;;;;;14.30;7.97;;;20.90;79.80;;;20.35;64.07;101391.44;5014807;28;20471;-87
2023/06/24 05:35:49;;;;;;;15.40;8.48;;;21.00;79.50;;;20.46;63.54;101395.91;5003379;28;20129;-87
2023/06/24 05:38:16;;;;;;;11.13;7.78;;;21.10;79.40;;;20.59;63.56;101394.69;5020566;28;20068;-87
2023/06/24 05:40:43;;;;;;;12.90;8.23;;;21.30;79.20;;;20.65;62.64;101390.97;4992295;28;20092;-87
2023/06/24 05:43:11;;;;;;;12.45;7.93;;;21.30;78.20;;;20.67;62.00;101394.25;5002384;28;20149;-87
2023/06/24 05:45:40;;;;;;;11.32;8.25;;;21.30;77.40;;;20.70;61.96;101392.91;4996829;28;20042;-87
2023/06/24 05:48:07;;;;;;;13.07;8.00;;;21.40;76.90;;;20.72;62.31;101393.47;5019108;28;20156;-86
2023/06/24 05:50:35;;;;;;;12.77;9.13;;;21.40;77.60;;;20.73;61.76;101395.91;5003152;28;20054;-87
2023/06/24 05:53:02;;;;;;;12.77;8.43;;;21.40;77.10;;;20.74;62.23;101400.28;5014462;28;20529;-87
2023/06/24 05:55:29;;;;;;;14.52;9.38;;;21.50;77.50;;;20.77;61.99;101396.22;5003691;28;20084;-88
2023/06/24 05:57:56;;;;;;;16.63;9.27;;;21.50;77.00;;;20.78;62.42;101398.69;5005287;28;20141;-87
2023/06/24 06:00:24;;;;;;;12.30;8.32;;;21.50;77.60;;;20.83;62.59;101392.47;5010550;28;20138;-87
2023/06/24 06:02:52;;;;;;;16.23;9.80;;;21.50;77.50;;;20.86;62.28;101389.28;4995455;28;20066;-85
2023/06/24 06:05:20;;;;;;;14.02;9.20;;;21.60;77.50;;;20.89;62.08;101390.66;5002150;28;20096;-87
2023/06/24 06:07:48;;;;;;;15.75;10.15;;;21.60;77.10;;;20.88;62.24;101395.25;4994259;28;20169;-87
2023/06/24 06:10:17;;;;;;;15.40;9.57;;;21.60;77.40;;;20.90;62.41;101395.00;5015341;28;20056;-87
2023/06/24 06:12:45;;;;;;;13.35;8.93;;;21.60;77.60;;;20.91;62.38;101400.16;5005755;28;20053;-87
2023/06/24 06:15:12;;;;;;;13.73;9.90;;;21.70;77.80;;;20.92;61.96;101400.97;5017079;28;20907;-85
2023/06/24 06:17:40;;;;;;;15.10;9.32;;;21.70;76.80;;;20.92;62.04;101395.56;5018551;28;20037;-87
2023/06/24 06:20:10;;;;;;;13.65;9.63;;;21.60;77.10;;;20.93;62.46;101398.00;5002214;28;20125;-85
2023/06/24 06:22:38;;;;;;;12.00;9.32;;;21.70;77.80;;;20.96;62.34;101396.69;5005544;28;20144;-84
2023/06/24 06:25:07;;;;;;;15.55;9.40;;;21.70;77.50;;;21.00;62.58;101401.34;4999798;28;20061;-86
2023/06/24 06:27:34;;;;;;;14.85;9.90;;;21.70;77.70;;;21.07;62.96;101399.22;5003533;28;20038;-86
2023/06/24 06:30:02;;;;;;;15.60;10.27;;;21.80;78.00;;;21.13;63.00;101412.81;5034582;28;20052;-86
2023/06/24 06:32:29;;;;;;;16.60;9.95;;;21.90;78.00;;;21.19;63.35;101417.22;5022312;28;20127;-86
2023/06/24 06:34:56;;;;;;;15.15;8.80;;;21.90;78.50;;;21.34;64.27;101420.91;5009560;28;20042;-88
2023/06/24 06:37:25;;;;;;;12.90;9.73;;;22.10;79.10;;;21.49;63.60;101417.50;5006623;28;20509;-86
2023/06/24 06:39:52;;;;;;;16.27;10.32;;;22.20;78.60;;;21.64;63.51;101422.22;5007692;28;20052;-86
2023/06/24 06:42:19;;;;;;;14.98;9.10;;;22.40;78.20;;;21.79;63.45;101416.06;5011131;28;20041;-86
2023/06/24 06:44:46;;;;;;;14.55;9.27;;;22.50;78.40;;;21.93;62.94;101417.22;5000916;28;20548;-84
2023/06/24 06:47:14;;;;;;;16.05;9.73;;;22.70;77.60;;;22.06;62.83;101421.38;5009187;28;20445;-82
2023/06/24 06:49:41;;;;;;;14.10;9.43;;;22.80;77.70;;;22.19;63.00;101415.47;5020684;28;20037;-77
2023/06/24 06:52:09;;;;;;;16.90;10.98;;;22.90;77.90;;;22.29;62.10;101420.94;5013752;28;20544;-76
2023/06/24 06:54:37;;;;;;;16.85;11.23;;;23.00;76.60;;;22.38;60.97;101425.88;5011236;28;20045;-77
2023/06/24 06:57:06;;;;;;;15.35;10.10;;;23.10;75.60;;;22.45;61.29;101426.41;5006093;28;20446;-77
2023/06/24 06:59:33;;;;;;;14.48;9.80;;;23.20;76.10;;;22.52;61.35;101432.44;5000560;28;20124;-77
2023/06/24 07:02:00;;;;;;;14.43;10.07;;;23.30;76.00;;;22.57;62.11;101429.72;5003070;28;20048;-77
2023/06/24 07:04:27;;;;;;;16.05;10.32;;;23.30;76.50;;;22.61;61.28;101441.72;5015657;28;20073;-77
2023/06/24 07:06:55;;;;;;;15.55;10.98;;;23.40;76.00;;;22.64;61.37;101443.88;5006046;28;20046;-77
2023/06/24 07:09:22;;;;;;;14.70;10.05;;;23.40;76.00;;;22.67;61.55;101442.53;5011030;28;20141;-80
2023/06/24 07:11:50;;;;;;;21.27;13.27;;;23.40;75.80;;;22.66;60.42;101440.91;5021715;28;20077;-79
2023/06/24 07:14:18;;;;;;;18.08;11.73;;;23.50;74.50;;;22.71;60.51;101440.91;5012380;28;20042;-81
2023/06/24 07:16:45;;;;;;;17.02;11.50;;;23.50;75.00;;;22.77;61.07;101448.00;5015800;28;20978;-80
2023/06/24 07:19:12;;;;;;;20.25;12.25;;;23.60;75.30;;;22.84;61.00;101443.94;5019957;28;20041;-80
2023/06/24 07:21:39;;;;;;;20.30;12.98;;;23.70;75.40;;;22.96;61.16;101441.00;5008450;28;20037;-81
2023/06/24 07:24:07;;;;;;;16.08;10.65;;;23.80;75.50;;;23.07;61.41;101437.19;5009321;28;20046;-81
2023/06/24 07:26:34;;;;;;;17.67;11.88;;;23.90;75.60;;;23.13;60.55;101440.72;5017555;28;20069;-81
2023/06/24 07:29:06;;;;;;;18.48;11.80;;;23.90;74.40;;;23.19;60.32;101433.41;5021003;28;20041;-81
2023/06/24 07:31:33;;;;;;;21.55;10.63;;;24.00;74.50;;;23.27;60.52;101438.28;5018020;28;20490;-78
2023/06/24 07:34:01;;;;;;;16.17;10.70;;;24.10;74.60;;;23.34;59.89;101439.66;5013385;28;20119;-83
2023/06/24 07:36:28;;;;;;;15.85;10.77;;;24.10;73.80;;;23.41;58.89;101447.53;5010131;28;20125;-83
2023/06/24 07:38:55;;;;;;;14.63;10.82;;;24.20;72.90;;;23.48;59.52;101447.28;5021915;28;20124;-83
2023/06/24 07:41:23;;;;;;;17.13;11.48;;;24.30;73.30;;;23.58;59.30;101450.00;4999367;28;20046;-83
2023/06/24 07:43:50;;;;;;;18.00;12.10;;;24.40;73.00;;;23.67;59.60;101453.81;5006379;28;20050;-83
2023/06/24 07:46:19;;;;;;;19.90;12.05;;;24.50;73.20;;;23.74;59.11;101448.88;5007021;28;20498;-83
2023/06/24 07:48:46;;;;;;;17.45;12.43;;;24.60;72.90;;;23.81;58.78;101446.69;5007611;28;20042;-82
2023/06/24 07:51:13;;;;;;;15.07;11.10;;;24.70;72.70;;;23.88;60.18;101447.22;4997481;28;20119;-80
2023/06/24 07:53:40;;;;;;;16.67;11.65;;;24.70;74.00;;;23.97;60.24;101450.22;5015104;28;20500;-81
2023/06/24 07:56:07;;;;;;;19.42;11.57;;;24.80;73.80;;;24.02;58.70;101442.00;5005681;28;20034;-80
2023/06/24 07:58:37;;;;;;;17.20;10.43;;;24.80;72.30;;;24.09;59.03;101447.16;5010625;28;20505;-81
2023/06/24 08:01:05;;;;;;;22.98;13.02;;;25.00;72.60;;;24.16;58.38;101450.44;5012360;28;20038;-81
2023/06/24 08:03:36;;;;;;;18.27;11.73;;;25.00;71.70;;;24.23;58.84;101447.38;4999848;28;20034;-83
2023/06/24 08:06:04;;;;;;;16.95;11.90;;;25.10;72.10;;;24.27;58.08;101457.47;5021466;28;20041;-82
2023/06/24 08:08:31;;;;;;;15.85;11.85;;;25.10;71.50;;;24.33;57.83;101447.34;5007211;28;20660;-80
2023/06/24 08:10:58;;;;;;;18.33;11.52;;;25.20;70.70;;;24.37;58.19;101449.28;5002187;28;20117;-83
2023/06/24 08:13:25;;;;;;;15.25;10.77;;;25.30;71.30;;;24.41;57.38;101446.81;5009602;28;20054;-83
2023/06/24 08:15:53;;;;;;;20.92;12.45;;;25.30;70.30;;;24.46;56.40;101435.06;5007466;28;20037;-83
2023/06/24 08:18:20;;;;;;;17.00;11.75;;;25.30;69.00;;;24.48;55.65;101452.75;5016667;28;20049;-82
2023/06/24 08:20:48;;;;;;;17.08;10.43;;;25.30;68.50;;;24.50;55.06;101450.59;5009194;28;20148;-81
2023/06/24 08:23:16;;;;;;;14.20;10.80;;;25.40;67.90;;;24.56;55.88;101446.72;5003102;28;20060;-83
2023/06/24 08:25:43;;;;;;;16.15;9.55;;;25.40;68.80;;;24.58;54.79;101449.16;5007201;28;20137;-83
2023/06/24 08:28:11;;;;;;;15.27;9.80;;;25.50;67.60;;;24.58;54.74;101444.50;5011013;28;20049;-83
2023/06/24 08:30:38;;;;;;;18.55;9.25;;;25.40;67.40;;;24.59;53.27;101446.13;4994399;28;20034;-83
2023/06/24 08:33:05;;;;;;;17.60;9.63;;;25.40;65.60;;;24.57;52.52;101442.88;5006380;28;20073;-82
2023/06/24 08:35:32;;;;;;;15.95;9.98;;;25.40;65.00;;;24.52;52.81;101442.91;4999990;28;20037;-79
2023/06/24 08:38:01;;;;;;;16.48;10.45;;;25.30;65.40;;;24.57;53.99;101442.88;4999243;28;20053;-79
2023/06/24 08:40:29;;;;;;;14.43;9.80;;;25.40;66.10;;;24.59;54.06;101445.34;5000604;28;20092;-80
2023/06/24 08:42:58;;;;;;;21.70;11.65;;;25.40;66.40;;;24.60;54.19;101439.63;5008885;28;20046;-81
2023/06/24 08:45:25;;;;;;;13.88;9.60;;;25.40;66.50;;;24.64;52.05;101434.38;5006131;28;20406;-79
2023/06/24 08:47:55;;;;;;;19.45;10.48;;;25.50;63.90;;;24.65;52.82;101434.13;5004035;28;20038;-90
2023/06/24 08:50:26;;;;;;;17.92;10.48;;;25.50;65.50;;;24.76;54.25;101434.06;5001031;28;20128;-88
2023/06/24 08:52:54;;;;;;;;;;;25.60;66.40;;;24.81;55.55;101434.03;5016624;28;20165;-87
2023/06/24 08:55:28;;;;;;;16.73;9.23;;;25.70;67.90;;;24.83;54.09;101434.53;5004547;28;20660;-86
2023/06/24 08:57:55;;;;;;;16.20;7.93;;;25.70;65.80;;;24.85;53.11;101430.44;5002421;28;20132;-88
2023/06/24 09:00:23;;;;;;;13.25;8.38;;;25.70;64.80;;;24.92;51.65;101435.56;5005944;28;20046;-87
2023/06/24 09:02:50;;;;;;;14.00;9.10;;;25.80;63.20;;;24.95;53.49;101429.56;4998092;28;20042;-86
2023/06/24 09:05:17;;;;;;;12.43;7.93;;;25.80;65.70;;;24.98;52.48;101434.44;5001472;28;20129;-88
2023/06/24 09:07:45;;;;;;;10.63;7.53;;;25.90;64.30;;;25.04;51.01;101436.06;5007169;28;20466;-89
2023/06/24 09:10:33;;;;;;;13.25;7.60;;;25.90;62.60;;;25.09;52.51;101433.31;5003261;28;20061;-86
2023/06/24 09:13:01;;;;;;;15.00;6.68;;;25.90;64.20;;;25.11;51.16;101422.91;5002200;28;20049;-87
2023/06/24 09:15:32;;;;;;;12.20;5.65;;;26.00;62.90;;;25.19;50.63;101423.41;5006507;28;20490;-86
2023/06/24 09:18:00;;;;;;;;;;;26.00;62.50;;;25.20;48.40;101419.56;5003679;28;20045;-86
2023/06/24 09:20:28;;;;;;;10.75;5.18;;;26.10;59.90;;;25.23;49.23;101416.25;5019581;23;20021;-76
2023/06/24 09:23:00;;;;;;;13.98;6.45;;;26.00;60.30;;;25.25;48.29;101419.53;5002261;28;20050;-76
2023/06/24 09:25:28;;;;;;;10.57;5.55;;;26.10;59.20;;;25.31;47.33;101418.38;4995314;28;20066;-77
2023/06/24 09:28:00;;;;;;;10.88;5.38;;;26.20;58.40;;;25.24;48.45;101412.44;5002837;28;20498;-78
2023/06/24 09:30:28;;;;;;;9.95;5.25;;;26.10;59.30;;;25.22;45.41;101403.72;4999531;28;20060;-78
2023/06/24 09:32:55;;;;;;;7.93;4.47;;;26.10;56.10;;;25.24;46.18;101412.44;5002466;28;20048;-79
2023/06/24 09:35:24;;;;;;;11.73;5.22;;;26.10;57.10;;;25.23;46.20;101402.59;4996551;28;20046;-79
2023/06/24 09:37:53;;;;;;;11.05;5.50;;;26.10;57.10;;;25.22;47.45;101404.50;5002887;28;20053;-79
2023/06/24 09:40:20;;;;;;;8.23;5.00;;;26.10;58.40;;;25.22;46.80;101403.72;5005002;28;20417;-79
2023/06/24 09:42:54;;;;;;;9.45;4.88;;;26.10;57.20;;;25.19;46.86;101394.19;4998586;28;20125;-78
2023/06/24 09:45:25;;;;;;;9.80;5.45;;;26.00;57.60;;;25.22;46.76;101403.72;5005237;28;20046;-78
2023/06/24 09:47:52;;;;;;;8.45;4.35;;;26.10;57.60;;;25.24;47.59;101393.31;5002829;28;20050;-78
2023/06/24 09:50:20;;;;;;;11.38;4.50;;;26.10;58.30;;;25.24;46.32;101402.34;4994323;28;20748;-78
2023/06/24 09:52:50;;;;;;;7.88;5.03;;;26.10;57.10;;;25.29;47.31;101401.47;5000578;28;20092;-78
2023/06/24 09:55:18;;;;;;;9.30;4.75;;;26.20;57.90;;;25.34;47.28;101399.50;5003373;28;20046;-78
2023/06/24 09:57:48;;;;;;;8.25;4.38;;;26.20;58.20;;;25.42;46.30;101395.31;5005737;28;20045;-78
2023/06/24 10:00:18;;;;;;;10.13;4.18;;;26.30;57.20;;;25.42;45.23;101389.84;4994740;28;20060;-79
2023/06/24 10:02:48;;;;;;;10.30;4.93;;;26.30;55.80;;;25.43;47.71;101383.31;5006329;28;20052;-78
2023/06/24 10:05:16;;;;;;;9.93;4.90;;;26.30;58.20;;;25.44;46.87;101395.88;4992950;28;20113;-80
2023/06/24 10:07:44;;;;;;;6.70;3.95;;;26.30;57.70;;;25.44;47.44;101390.41;5007376;28;20049;-77
2023/06/24 10:10:12;;;;;;;8.75;4.00;;;26.30;57.50;;;25.41;47.14;101380.84;5000057;28;20069;-79
2023/06/24 10:12:39;;;;;;;7.25;4.43;;;26.30;57.80;;;25.40;46.73;101375.69;4999294;28;20517;-76
2023/06/24 10:15:07;;;;;;;8.30;3.97;;;26.30;57.10;;;25.39;46.15;101377.59;4997732;28;20080;-77
2023/06/24 10:17:35;;;;;;;7.95;4.55;;;26.30;56.90;;;25.38;44.03;101370.53;5003752;28;20049;-77